createdAt,value
2024-04-11T00:00:50.468Z,6.70
2024-04-11T00:03:18.945Z,5.90
2024-04-11T00:05:46.670Z,6.00
2024-04-11T00:08:14.372Z,5.70
2024-04-11T00:10:41.961Z,5.70
2024-04-11T00:13:09.891Z,5.63
2024-04-11T00:15:37.459Z,5.63
2024-04-11T00:18:05.441Z,5.57
2024-04-11T00:20:33.810Z,5.57
2024-04-11T00:23:01.438Z,5.90
2024-04-11T00:25:28.983Z,5.28
2024-04-11T00:27:56.655Z,5.50
2024-04-11T00:30:24.576Z,5.57
2024-04-11T00:32:52.214Z,4.47
2024-04-11T00:35:20.191Z,5.10
2024-04-11T00:37:50.451Z,5.60
2024-04-11T00:40:18.122Z,4.32
2024-04-11T00:42:45.848Z,4.65
2024-04-11T00:45:13.626Z,5.00
2024-04-11T00:47:42.740Z,4.50
2024-04-11T00:50:10.955Z,5.47
2024-04-11T00:52:39.888Z,5.05
2024-04-11T00:55:08.875Z,4.75
2024-04-11T00:57:38.339Z,5.82
2024-04-11T01:00:08.660Z,4.68
2024-04-11T01:02:37.268Z,5.63
2024-04-11T01:05:05.410Z,5.82
2024-04-11T01:07:34.012Z,6.32
2024-04-11T01:10:01.655Z,5.28
2024-04-11T01:12:31.083Z,5.07
2024-04-11T01:14:58.691Z,4.82
2024-04-11T01:17:26.539Z,4.78
2024-04-11T01:19:54.221Z,4.90
2024-04-11T01:22:21.716Z,5.03
2024-04-11T01:24:49.844Z,5.00
2024-04-11T01:27:17.536Z,4.72
2024-04-11T01:29:45.446Z,4.10
2024-04-11T01:32:13.329Z,4.82
2024-04-11T01:34:41.417Z,4.88
2024-04-11T01:37:09.335Z,4.78
2024-04-11T01:39:38.813Z,4.60
2024-04-11T01:42:06.861Z,6.22
2024-04-11T01:44:34.620Z,4.90
2024-04-11T01:47:02.326Z,5.53
2024-04-11T01:49:33.536Z,5.72
2024-04-11T01:52:11.336Z,5.25
2024-04-11T01:54:40.769Z,5.15
2024-04-11T01:57:09.818Z,4.70
2024-04-11T01:59:37.434Z,5.57
2024-04-11T02:02:09.744Z,5.00
2024-04-11T02:04:37.710Z,4.65
2024-04-11T02:07:06.504Z,5.05
2024-04-11T02:09:34.071Z,5.70
2024-04-11T02:12:02.491Z,4.78
2024-04-11T02:14:31.419Z,4.88
2024-04-11T02:17:01.279Z,5.18
2024-04-11T02:19:30.285Z,4.72
2024-04-11T02:21:57.936Z,5.60
2024-04-11T02:24:25.767Z,5.82
2024-04-11T02:26:54.617Z,4.57
2024-04-11T02:29:22.818Z,5.00
2024-04-11T02:31:50.643Z,5.13
2024-04-11T02:34:18.897Z,4.35
2024-04-11T02:36:48.930Z,5.15
2024-04-11T02:39:18.748Z,5.28
2024-04-11T02:41:47.833Z,4.57
2024-04-11T02:44:15.873Z,5.45
2024-04-11T02:46:43.468Z,5.10
2024-04-11T02:49:11.357Z,4.95
2024-04-11T02:51:39.219Z,4.85
2024-04-11T02:54:07.566Z,4.93
2024-04-11T02:56:35.632Z,4.03
2024-04-11T02:59:03.344Z,5.00
2024-04-11T03:01:33.785Z,4.78
2024-04-11T03:04:04.175Z,4.68
2024-04-11T03:06:33.364Z,4.80
2024-04-11T03:09:02.807Z,4.68
2024-04-11T03:11:31.158Z,5.03
2024-04-11T03:13:59.475Z,5.18
2024-04-11T03:16:32.131Z,5.22
2024-04-11T03:19:01.239Z,5.32
2024-04-11T03:21:28.975Z,5.15
2024-04-11T03:23:56.801Z,4.55
2024-04-11T03:26:24.459Z,5.75
2024-04-11T03:28:52.101Z,6.07
2024-04-11T03:31:20.667Z,6.60
2024-04-11T03:33:48.916Z,6.65
2024-04-11T03:36:16.896Z,7.28
2024-04-11T03:38:44.622Z,6.70
2024-04-11T03:41:13.501Z,6.10
2024-04-11T03:43:42.774Z,7.82
2024-04-11T03:46:12.933Z,7.40
2024-04-11T03:48:41.176Z,6.63
2024-04-11T03:51:12.244Z,6.88
2024-04-11T03:53:39.795Z,6.85
2024-04-11T03:56:09.007Z,7.03
2024-04-11T03:58:38.875Z,6.88
2024-04-11T04:01:13.986Z,8.00
2024-04-11T04:03:42.882Z,7.78
2024-04-11T04:06:12.368Z,8.45
2024-04-11T04:08:42.399Z,7.80
2024-04-11T04:11:10.232Z,8.07
2024-04-11T04:13:39.239Z,7.70
2024-04-11T04:16:12.436Z,8.23
2024-04-11T04:18:42.129Z,6.90
2024-04-11T04:21:10.289Z,7.80
2024-04-11T04:23:38.566Z,7.18
2024-04-11T04:26:07.637Z,7.43
2024-04-11T04:28:39.005Z,7.55
2024-04-11T04:31:23.517Z,6.88
2024-04-11T04:33:54.672Z,7.35
2024-04-11T04:36:27.655Z,7.25
2024-04-11T04:38:58.306Z,7.07
2024-04-11T04:41:28.587Z,7.15
2024-04-11T04:43:58.899Z,7.10
2024-04-11T04:46:27.952Z,6.00
2024-04-11T04:48:55.674Z,6.70
2024-04-11T04:51:25.766Z,7.10
2024-04-11T04:53:54.475Z,7.30
2024-04-11T04:56:24.519Z,5.68
2024-04-11T04:58:53.638Z,5.43
2024-04-11T05:01:25.601Z,5.55
2024-04-11T05:03:53.499Z,5.85
2024-04-11T05:06:21.261Z,5.72
2024-04-11T05:08:49.694Z,6.18
2024-04-11T05:11:18.066Z,5.07
2024-04-11T05:13:49.751Z,5.43
2024-04-11T05:16:22.883Z,5.40
2024-04-11T05:18:51.953Z,5.10
2024-04-11T05:21:28.079Z,6.50
2024-04-11T05:23:57.232Z,4.75
2024-04-11T05:26:27.148Z,4.95
2024-04-11T05:28:56.621Z,5.30
2024-04-11T05:31:27.881Z,4.22
2024-04-11T05:34:01.752Z,5.00
2024-04-11T05:36:31.086Z,4.05
2024-04-11T05:38:59.243Z,4.20
2024-04-11T05:41:27.580Z,4.13
2024-04-11T05:43:58.499Z,4.47
2024-04-11T05:46:26.272Z,4.95
2024-04-11T05:48:54.914Z,4.05
2024-04-11T05:51:22.896Z,4.70
2024-04-11T05:53:51.650Z,3.33
2024-04-11T05:56:20.518Z,4.20
2024-04-11T05:58:51.366Z,3.65
2024-04-11T06:01:19.559Z,4.50
2024-04-11T06:03:48.701Z,4.25
2024-04-11T06:06:17.225Z,4.45
2024-04-11T06:08:45.504Z,3.65
2024-04-11T06:11:13.528Z,4.35
2024-04-11T06:13:41.206Z,3.70
2024-04-11T06:16:09.119Z,4.10
2024-04-11T06:18:37.422Z,4.07
2024-04-11T06:21:06.636Z,3.47
2024-04-11T06:23:37.061Z,4.05
2024-04-11T06:26:11.930Z,3.95
2024-04-11T06:28:40.824Z,4.07
2024-04-11T06:31:10.906Z,4.07
2024-04-11T06:33:43.027Z,4.57
2024-04-11T06:36:13.151Z,4.20
2024-04-11T06:38:41.418Z,4.55
2024-04-11T06:41:10.759Z,4.90
2024-04-11T06:43:39.891Z,3.97
2024-04-11T06:46:08.842Z,4.10
2024-04-11T06:48:37.501Z,3.67
2024-04-11T06:51:08.786Z,5.53
2024-04-11T06:53:37.702Z,4.38
2024-04-11T06:56:09.424Z,4.82
2024-04-11T06:58:38.759Z,3.47
2024-04-11T07:01:11.044Z,4.90
2024-04-11T07:03:42.806Z,4.05
2024-04-11T07:06:17.926Z,3.75
2024-04-11T07:08:45.769Z,4.07
2024-04-11T07:11:22.028Z,4.63
2024-04-11T07:13:56.718Z,4.55
2024-04-11T07:16:31.050Z,3.80
2024-04-11T07:18:59.438Z,4.28
2024-04-11T07:21:28.387Z,4.20
2024-04-11T07:23:57.031Z,3.85
2024-04-11T07:26:25.537Z,4.13
2024-04-11T07:28:53.356Z,3.50
2024-04-11T07:31:22.960Z,5.07
2024-04-11T07:33:52.506Z,4.72
2024-04-11T07:36:24.286Z,4.30
2024-04-11T07:38:53.943Z,4.53
2024-04-11T07:41:25.834Z,3.83
2024-04-11T07:43:57.307Z,3.80
2024-04-11T07:46:39.587Z,5.10
2024-04-11T07:49:15.126Z,4.40
2024-04-11T07:51:43.552Z,4.35
2024-04-11T07:54:25.940Z,3.78
2024-04-11T07:57:02.152Z,4.18
2024-04-11T07:59:29.924Z,4.30
2024-04-11T08:01:58.259Z,4.70
2024-04-11T08:04:26.151Z,4.25
2024-04-11T08:06:53.768Z,4.72
2024-04-11T08:09:21.438Z,4.43
2024-04-11T08:11:49.153Z,4.72
2024-04-11T08:14:16.851Z,4.32
2024-04-11T08:16:48.673Z,5.50
2024-04-11T08:19:18.996Z,4.60
2024-04-11T08:21:47.829Z,4.15
2024-04-11T08:24:15.525Z,3.83
2024-04-11T08:26:44.011Z,4.45
2024-04-11T08:29:11.914Z,3.80
2024-04-11T08:31:41.547Z,4.15
2024-04-11T08:34:09.223Z,3.85
2024-04-11T08:36:38.753Z,3.97
2024-04-11T08:39:06.514Z,4.47
2024-04-11T08:41:34.274Z,4.60
2024-04-11T08:44:01.942Z,4.65
2024-04-11T08:46:29.501Z,3.92
2024-04-11T08:48:57.226Z,4.15
2024-04-11T08:51:25.420Z,4.72
2024-04-11T08:54:03.298Z,3.90
2024-04-11T08:56:33.428Z,4.13
2024-04-11T08:59:01.603Z,3.85
2024-04-11T09:01:31.145Z,4.25
2024-04-11T09:03:59.225Z,3.33
2024-04-11T09:06:30.254Z,4.25
2024-04-11T09:11:28.448Z,4.20
2024-04-11T09:14:00.820Z,4.22
2024-04-11T09:16:29.681Z,4.30
2024-04-11T09:19:07.070Z,4.20
2024-04-11T09:21:34.852Z,4.38
2024-04-11T09:24:03.138Z,4.88
2024-04-11T09:26:30.807Z,4.57
2024-04-11T09:28:58.601Z,4.28
2024-04-11T09:31:28.529Z,4.80
2024-04-11T09:33:57.228Z,4.70
2024-04-11T09:36:29.855Z,4.90
2024-04-11T09:39:06.963Z,5.28
2024-04-11T09:41:36.136Z,5.22
2024-04-11T09:44:08.480Z,4.22
2024-04-11T09:46:44.806Z,3.83
2024-04-11T09:49:15.183Z,4.65
2024-04-11T09:51:43.856Z,4.70
2024-04-11T09:54:15.230Z,5.05
2024-04-11T09:56:46.186Z,4.88
2024-04-11T09:59:14.290Z,4.10
2024-04-11T10:01:42.433Z,5.38
2024-04-11T10:04:23.889Z,5.40
2024-04-11T10:06:54.355Z,5.25
2024-04-11T10:09:31.335Z,4.53
2024-04-11T10:14:36.964Z,4.45
2024-04-11T10:17:06.974Z,4.22
2024-04-11T10:19:40.280Z,3.50
2024-04-11T10:22:09.489Z,4.22
2024-04-11T10:24:38.518Z,3.65
2024-04-11T10:29:49.370Z,3.92
2024-04-11T10:32:24.897Z,4.03
2024-04-11T10:35:03.485Z,3.53
2024-04-11T10:37:35.050Z,3.80
2024-04-11T10:40:03.256Z,3.47
2024-04-11T10:42:56.344Z,2.80
2024-04-11T10:45:31.199Z,3.33
2024-04-11T10:48:01.586Z,3.53
2024-04-11T10:50:30.667Z,2.58
2024-04-11T10:53:04.634Z,2.63
2024-04-11T10:55:37.749Z,2.60
2024-04-11T10:58:15.539Z,3.03
2024-04-11T11:01:06.428Z,2.40
2024-04-11T11:03:52.216Z,2.97
2024-04-11T11:09:00.867Z,2.50
2024-04-11T11:13:57.020Z,2.70
2024-04-11T11:16:27.820Z,2.80
2024-04-11T11:18:55.607Z,2.75
2024-04-11T11:21:24.163Z,3.25
2024-04-11T11:24:02.732Z,3.17
2024-04-11T11:26:38.690Z,3.30
2024-04-11T11:29:07.945Z,3.25
2024-04-11T11:31:38.692Z,2.85
2024-04-11T11:34:12.313Z,3.22
2024-04-11T11:36:49.769Z,2.78
2024-04-11T11:39:19.757Z,2.80
2024-04-11T11:41:49.518Z,2.97
2024-04-11T11:44:20.056Z,3.15
2024-04-11T11:47:07.724Z,3.30
2024-04-11T11:49:40.725Z,3.13
2024-04-11T11:52:10.542Z,3.20
2024-04-11T11:54:43.201Z,3.13
2024-04-11T11:57:19.339Z,3.58
2024-04-11T11:59:47.058Z,3.10
2024-04-11T12:02:15.852Z,2.72
2024-04-11T12:04:48.913Z,2.30
2024-04-11T12:07:20.018Z,2.40
2024-04-11T12:10:09.037Z,2.67
2024-04-11T12:15:07.651Z,1.77
2024-04-11T12:17:39.687Z,2.20
2024-04-11T12:20:07.807Z,2.10
2024-04-11T12:22:35.874Z,2.33
2024-04-11T12:25:04.019Z,2.13
2024-04-11T12:27:32.343Z,1.38
2024-04-11T12:30:03.257Z,1.90
2024-04-11T12:32:33.137Z,1.92
2024-04-11T12:35:01.854Z,2.20
2024-04-11T12:37:36.006Z,1.83
2024-04-11T12:40:08.501Z,1.63
2024-04-11T12:42:39.855Z,1.58
2024-04-11T12:45:09.993Z,1.75
2024-04-11T12:47:41.927Z,1.83
2024-04-11T12:50:23.049Z,1.60
2024-04-11T12:52:51.321Z,1.30
2024-04-11T12:55:26.838Z,1.50
2024-04-11T12:58:08.347Z,2.00
2024-04-11T13:00:37.785Z,1.75
2024-04-11T13:03:17.675Z,1.80
2024-04-11T13:05:53.122Z,1.60
2024-04-11T13:08:29.908Z,1.83
2024-04-11T13:11:09.443Z,2.00
2024-04-11T13:13:42.190Z,1.88
2024-04-11T13:16:12.069Z,2.10
2024-04-11T13:18:40.836Z,1.58
2024-04-11T13:21:16.675Z,2.20
2024-04-11T13:23:45.017Z,1.80
2024-04-11T13:26:18.658Z,1.77
2024-04-11T13:28:51.438Z,2.00
2024-04-11T13:31:22.192Z,2.20
2024-04-11T13:33:54.970Z,1.95
2024-04-11T13:36:26.300Z,1.90
2024-04-11T13:38:54.599Z,2.05
2024-04-11T13:41:42.282Z,2.28
2024-04-11T13:44:17.891Z,2.35
2024-04-11T13:46:48.391Z,2.60
2024-04-11T13:49:32.424Z,2.33
2024-04-11T13:52:20.492Z,2.22
2024-04-11T13:54:48.460Z,1.77
2024-04-11T13:57:22.841Z,1.73
2024-04-11T13:59:56.656Z,2.05
2024-04-11T14:02:47.223Z,1.73
2024-04-11T14:05:31.235Z,2.03
2024-04-11T14:08:01.285Z,2.10
2024-04-11T14:10:29.473Z,1.65
2024-04-11T14:12:57.158Z,1.52
2024-04-11T14:15:25.224Z,2.13
2024-04-11T14:17:58.756Z,2.15
2024-04-11T14:20:33.561Z,1.63
2024-04-11T14:23:21.327Z,2.15
2024-04-11T14:26:07.028Z,2.00
2024-04-11T14:28:37.117Z,2.00
2024-04-11T14:31:09.843Z,1.98
2024-04-11T14:33:57.360Z,1.70
2024-04-11T14:36:27.509Z,1.88
2024-04-11T14:38:57.520Z,1.58
2024-04-11T14:41:25.330Z,1.63
2024-04-11T14:43:57.228Z,1.08
2024-04-11T14:46:26.010Z,1.30
2024-04-11T14:48:57.690Z,1.15
2024-04-11T14:51:28.203Z,1.13
2024-04-11T14:53:55.796Z,1.10
2024-04-11T14:56:40.600Z,1.50
2024-04-11T14:59:09.103Z,1.02
2024-04-11T15:01:45.040Z,1.65
2024-04-11T15:04:13.386Z,1.15
2024-04-11T15:06:45.394Z,1.10
2024-04-11T15:09:28.723Z,0.90
2024-04-11T15:11:59.348Z,0.88
2024-04-11T15:14:28.954Z,0.90
2024-04-11T15:17:16.657Z,1.08
2024-04-11T15:19:45.658Z,0.82
2024-04-11T15:22:13.741Z,1.20
2024-04-11T15:24:48.193Z,1.17
2024-04-11T15:27:15.817Z,1.20
2024-04-11T15:30:03.426Z,1.42
2024-04-11T15:32:34.508Z,1.35
2024-04-11T15:35:11.935Z,1.10
2024-04-11T15:40:33.405Z,1.40
2024-04-11T15:43:03.901Z,1.20
2024-04-11T15:45:31.990Z,1.48
2024-04-11T15:48:01.161Z,1.40
2024-04-11T15:50:38.645Z,1.55
2024-04-11T15:53:08.033Z,2.13
2024-04-11T15:55:56.015Z,1.50
2024-04-11T15:58:26.571Z,2.30
2024-04-11T16:00:55.075Z,1.70
2024-04-11T16:03:23.799Z,1.80
2024-04-11T16:05:54.955Z,2.22
2024-04-11T16:10:56.330Z,1.95
2024-04-11T16:13:29.323Z,2.05
2024-04-11T16:15:58.225Z,1.90
2024-04-11T16:18:27.704Z,2.33
2024-04-11T16:21:01.851Z,2.85
2024-04-11T16:23:36.204Z,2.00
2024-04-11T16:26:23.809Z,2.08
2024-04-11T16:28:51.397Z,2.28
2024-04-11T16:31:19.379Z,2.20
2024-04-11T16:33:51.157Z,2.10
2024-04-11T16:36:21.138Z,2.38
2024-04-11T16:38:49.201Z,2.88
2024-04-11T16:41:22.195Z,2.97
2024-04-11T16:43:58.706Z,2.55
2024-04-11T16:46:28.285Z,2.20
2024-04-11T16:48:56.261Z,3.03
2024-04-11T16:51:27.312Z,2.60
2024-04-11T16:54:14.768Z,2.63
2024-04-11T16:56:47.666Z,2.97
2024-04-11T16:59:21.630Z,2.45
2024-04-11T17:01:50.384Z,2.38
2024-04-11T17:04:18.998Z,2.78
2024-04-11T17:06:46.543Z,3.83
2024-04-11T17:09:16.367Z,2.38
2024-04-11T17:11:44.031Z,2.60
2024-04-11T17:14:11.662Z,2.33
2024-04-11T17:16:59.092Z,2.53
2024-04-11T17:19:30.674Z,2.25
2024-04-11T17:21:58.503Z,2.28
2024-04-11T17:24:26.133Z,2.45
2024-04-11T17:26:54.918Z,2.33
2024-04-11T17:29:42.531Z,2.42
2024-04-11T17:32:23.609Z,2.75
2024-04-11T17:34:57.269Z,2.60
2024-04-11T17:37:41.783Z,2.97
2024-04-11T17:40:29.896Z,2.67
2024-04-11T17:42:59.430Z,2.75
2024-04-11T17:45:30.125Z,4.28
2024-04-11T17:48:02.477Z,2.80
2024-04-11T17:50:38.378Z,3.17
2024-04-11T17:53:07.737Z,3.67
2024-04-11T17:55:39.217Z,9.18
2024-04-11T17:58:11.100Z,9.02
2024-04-11T18:00:41.768Z,9.27
2024-04-11T18:03:12.311Z,16.92
2024-04-11T18:05:41.609Z,15.55
2024-04-11T18:08:10.806Z,18.48
2024-04-11T18:10:40.021Z,19.23
2024-04-11T18:13:08.347Z,19.30
2024-04-11T18:15:41.985Z,19.10
2024-04-11T18:18:13.455Z,14.43
2024-04-11T18:20:41.182Z,10.10
2024-04-11T18:23:09.008Z,8.18
2024-04-11T18:25:39.415Z,4.50
2024-04-11T18:28:14.432Z,2.90
2024-04-11T18:31:07.130Z,3.70
2024-04-11T18:33:40.184Z,3.35
2024-04-11T18:36:16.352Z,2.97
2024-04-11T18:38:45.810Z,3.58
2024-04-11T18:41:13.458Z,3.60
2024-04-11T18:43:45.739Z,2.28
2024-04-11T18:46:20.933Z,2.85
2024-04-11T18:48:52.602Z,2.35
2024-04-11T18:51:24.858Z,1.92
2024-04-11T18:53:52.701Z,1.92
2024-04-11T18:56:36.073Z,1.70
2024-04-11T18:59:14.936Z,2.08
2024-04-11T19:01:42.774Z,1.63
2024-04-11T19:04:21.626Z,1.85
2024-04-11T19:06:51.063Z,2.10
2024-04-11T19:09:30.125Z,2.17
2024-04-11T19:11:57.692Z,1.42
2024-04-11T19:14:30.749Z,1.70
2024-04-11T19:17:02.197Z,1.50
2024-04-11T19:19:33.216Z,1.65
2024-04-11T19:22:01.796Z,1.40
2024-04-11T19:24:29.558Z,1.60
2024-04-11T19:26:59.245Z,1.60
2024-04-11T19:29:39.119Z,1.35
2024-04-11T19:32:07.092Z,1.67
2024-04-11T19:34:34.736Z,1.77
2024-04-11T19:37:06.461Z,1.48
2024-04-11T19:39:44.508Z,1.60
2024-04-11T19:42:19.581Z,1.90
2024-04-11T19:44:49.390Z,1.63
2024-04-11T19:47:19.813Z,1.67
2024-04-11T19:50:07.918Z,1.45
2024-04-11T19:52:35.595Z,1.50
2024-04-11T19:55:22.400Z,1.50
2024-04-11T19:57:50.761Z,2.00
2024-04-11T20:00:40.458Z,1.83
2024-04-11T20:03:28.506Z,1.75
2024-04-11T20:05:57.246Z,2.53
2024-04-11T20:08:30.041Z,1.88
2024-04-11T20:11:12.601Z,2.33
2024-04-11T20:16:26.008Z,1.98
2024-04-11T20:18:56.987Z,2.45
2024-04-11T20:21:25.737Z,1.92
2024-04-11T20:23:58.753Z,1.90
2024-04-11T20:26:32.291Z,1.95
2024-04-11T20:29:05.162Z,2.20
2024-04-11T20:31:35.379Z,2.65
2024-04-11T20:34:11.341Z,2.38
2024-04-11T20:36:41.857Z,2.35
2024-04-11T20:39:15.201Z,2.30
2024-04-11T20:41:52.361Z,1.65
2024-04-11T20:44:40.142Z,2.53
2024-04-11T20:52:44.787Z,2.00
2024-04-11T20:55:32.256Z,2.00
2024-04-11T20:58:19.714Z,1.92
2024-04-11T21:01:07.820Z,1.92
2024-04-11T21:03:55.314Z,1.90
2024-04-11T21:06:42.781Z,2.10
2024-04-11T21:09:30.239Z,1.92
2024-04-11T21:12:17.693Z,1.77
2024-04-11T21:15:05.244Z,1.67
2024-04-11T21:17:53.004Z,1.45
2024-04-11T21:20:40.581Z,1.42
2024-04-11T21:23:28.172Z,1.55
2024-04-11T21:26:18.427Z,1.65
2024-04-11T21:29:05.826Z,1.80
2024-04-11T21:31:53.223Z,1.77
2024-04-11T21:34:27.021Z,1.30
2024-04-11T21:36:55.007Z,1.63
2024-04-11T21:39:22.641Z,1.10
2024-04-11T21:41:57.077Z,1.38
2024-04-11T21:44:27.830Z,1.40
2024-04-11T21:46:56.366Z,1.13
2024-04-11T21:49:26.788Z,1.33
2024-04-11T21:51:57.773Z,1.65
2024-04-11T21:54:28.542Z,1.30
2024-04-11T21:56:58.898Z,1.48
2024-04-11T21:59:26.705Z,1.65
2024-04-11T22:01:58.020Z,1.38
2024-04-11T22:04:42.228Z,1.48
2024-04-11T22:07:12.829Z,1.73
2024-04-11T22:09:44.964Z,1.05
2024-04-11T22:12:14.285Z,1.50
2024-04-11T22:14:44.988Z,1.23
2024-04-11T22:17:22.604Z,1.42
2024-04-11T22:20:02.090Z,1.10
2024-04-11T22:22:46.912Z,1.05
2024-04-11T22:25:16.452Z,1.20
2024-04-11T22:27:49.688Z,1.30
2024-04-11T22:32:44.984Z,1.17
2024-04-11T22:35:12.574Z,1.23
2024-04-11T22:37:43.056Z,1.25
2024-04-11T22:40:15.771Z,0.80
2024-04-11T22:42:54.569Z,1.05
2024-04-11T22:45:31.180Z,1.27
2024-04-11T22:47:59.202Z,1.00
2024-04-11T22:50:26.827Z,1.02
2024-04-11T22:52:54.430Z,1.05
2024-04-11T22:55:24.171Z,1.10
2024-04-11T22:57:53.922Z,1.30
2024-04-11T23:00:31.354Z,1.10
2024-04-11T23:03:02.271Z,1.10
2024-04-11T23:05:31.340Z,1.00
2024-04-11T23:08:00.176Z,1.23
2024-04-11T23:10:46.751Z,1.08
2024-04-11T23:13:18.030Z,1.40
2024-04-11T23:15:59.350Z,1.15
2024-04-11T23:18:40.287Z,1.13
2024-04-11T23:21:14.235Z,1.10
2024-04-11T23:23:42.849Z,1.02
2024-04-11T23:26:16.577Z,1.27
2024-04-11T23:28:47.505Z,1.13
2024-04-11T23:31:16.626Z,1.13
2024-04-11T23:33:58.685Z,1.45
2024-04-11T23:36:29.189Z,1.15
2024-04-11T23:39:01.612Z,1.70
2024-04-11T23:41:36.042Z,1.40
2024-04-11T23:44:09.568Z,1.30
2024-04-11T23:46:42.851Z,1.13
2024-04-11T23:49:14.695Z,1.48
2024-04-11T23:51:48.052Z,1.70
2024-04-11T23:54:23.493Z,1.42
2024-04-11T23:57:02.761Z,1.10
2024-04-11T23:59:40.551Z,1.17
